sensor_id;sensor_type;location;lat;lon;timestamp;P1;durP1;ratioP1;P2;durP2;ratioP2
27357;SDS011;14831;50.474;7.616;2023-07-16T00:01:04;2.1;;;1.5;;
27357;SDS011;14831;50.474;7.616;2023-07-16T00:05:57;2.1;;;1.5;;
27357;SDS011;14831;50.474;7.616;2023-07-16T00:10:57;2.1;;;1.5;;
27357;SDS011;14831;50.474;7.616;2023-07-16T00:15:57;1.5;;;1.4;;
27357;SDS011;14831;50.474;7.616;2023-07-16T00:20:57;1.5;;;1.4;;
27357;SDS011;14831;50.474;7.616;2023-07-16T00:25:57;1.5;;;1.4;;
27357;SDS011;14831;50.474;7.616;2023-07-16T00:30:57;1.5;;;1.4;;
27357;SDS011;14831;50.474;7.616;2023-07-16T00:35:57;1.5;;;1.4;;
27357;SDS011;14831;50.474;7.616;2023-07-16T00:40:57;1.5;;;1.4;;
27357;SDS011;14831;50.474;7.616;2023-07-16T00:45:57;2.4;;;1.5;;
27357;SDS011;14831;50.474;7.616;2023-07-16T00:50:57;2.4;;;1.5;;
27357;SDS011;14831;50.474;7.616;2023-07-16T00:55:57;2.4;;;1.5;;
27357;SDS011;14831;50.474;7.616;2023-07-16T01:00:57;2.4;;;1.5;;
27357;SDS011;14831;50.474;7.616;2023-07-16T01:06:04;2.4;;;1.5;;
27357;SDS011;14831;50.474;7.616;2023-07-16T01:10:57;2.4;;;1.5;;
27357;SDS011;14831;50.474;7.616;2023-07-16T01:15:57;2.9;;;1.7;;
27357;SDS011;14831;50.474;7.616;2023-07-16T01:20:57;2.9;;;1.7;;
27357;SDS011;14831;50.474;7.616;2023-07-16T01:26:29;2.9;;;1.7;;
27357;SDS011;14831;50.474;7.616;2023-07-16T01:30:58;2.9;;;1.7;;
27357;SDS011;14831;50.474;7.616;2023-07-16T01:35:59;2.9;;;1.7;;
27357;SDS011;14831;50.474;7.616;2023-07-16T01:40:58;2.9;;;1.7;;
27357;SDS011;14831;50.474;7.616;2023-07-16T01:45:57;3.9;;;1.8;;
27357;SDS011;14831;50.474;7.616;2023-07-16T01:50:57;3.9;;;1.8;;
27357;SDS011;14831;50.474;7.616;2023-07-16T01:55:58;3.9;;;1.8;;
27357;SDS011;14831;50.474;7.616;2023-07-16T02:00:57;3.9;;;1.8;;
27357;SDS011;14831;50.474;7.616;2023-07-16T02:05:57;3.9;;;1.8;;
27357;SDS011;14831;50.474;7.616;2023-07-16T02:10:57;3.9;;;1.8;;
27357;SDS011;14831;50.474;7.616;2023-07-16T02:15:57;4.0;;;1.9;;
27357;SDS011;14831;50.474;7.616;2023-07-16T02:20:57;4.0;;;1.9;;
27357;SDS011;14831;50.474;7.616;2023-07-16T02:25:57;4.0;;;1.9;;
27357;SDS011;14831;50.474;7.616;2023-07-16T02:30:57;4.0;;;1.9;;
27357;SDS011;14831;50.474;7.616;2023-07-16T02:35:57;4.0;;;1.9;;
27357;SDS011;14831;50.474;7.616;2023-07-16T02:40:57;4.0;;;1.9;;
27357;SDS011;14831;50.474;7.616;2023-07-16T02:45:57;3.8;;;1.9;;
27357;SDS011;14831;50.474;7.616;2023-07-16T02:50:57;3.8;;;1.9;;
27357;SDS011;14831;50.474;7.616;2023-07-16T02:55:57;3.8;;;1.9;;
27357;SDS011;14831;50.474;7.616;2023-07-16T03:00:57;3.8;;;1.9;;
27357;SDS011;14831;50.474;7.616;2023-07-16T03:05:57;3.8;;;1.9;;
27357;SDS011;14831;50.474;7.616;2023-07-16T03:10:57;3.8;;;1.9;;
27357;SDS011;14831;50.474;7.616;2023-07-16T03:15:57;3.1;;;2.0;;
27357;SDS011;14831;50.474;7.616;2023-07-16T03:20:57;3.1;;;2.0;;
27357;SDS011;14831;50.474;7.616;2023-07-16T03:25:57;3.1;;;2.0;;
27357;SDS011;14831;50.474;7.616;2023-07-16T03:30:57;3.1;;;2.0;;
27357;SDS011;14831;50.474;7.616;2023-07-16T03:35:57;3.1;;;2.0;;
27357;SDS011;14831;50.474;7.616;2023-07-16T03:40:57;3.1;;;2.0;;
27357;SDS011;14831;50.474;7.616;2023-07-16T03:45:57;3.3;;;1.8;;
27357;SDS011;14831;50.474;7.616;2023-07-16T03:50:57;3.3;;;1.8;;
27357;SDS011;14831;50.474;7.616;2023-07-16T03:55:57;3.3;;;1.8;;
27357;SDS011;14831;50.474;7.616;2023-07-16T04:00:57;3.3;;;1.8;;
27357;SDS011;14831;50.474;7.616;2023-07-16T04:06:01;3.3;;;1.8;;
27357;SDS011;14831;50.474;7.616;2023-07-16T04:10:57;3.3;;;1.8;;
27357;SDS011;14831;50.474;7.616;2023-07-16T04:15:57;3.9;;;2.0;;
27357;SDS011;14831;50.474;7.616;2023-07-16T04:20:57;3.9;;;2.0;;
27357;SDS011;14831;50.474;7.616;2023-07-16T04:25:57;3.9;;;2.0;;
27357;SDS011;14831;50.474;7.616;2023-07-16T04:30:57;3.9;;;2.0;;
27357;SDS011;14831;50.474;7.616;2023-07-16T04:35:57;3.9;;;2.0;;
27357;SDS011;14831;50.474;7.616;2023-07-16T04:40:57;3.9;;;2.0;;
27357;SDS011;14831;50.474;7.616;2023-07-16T04:45:57;3.7;;;2.1;;
27357;SDS011;14831;50.474;7.616;2023-07-16T04:50:57;3.7;;;2.1;;
27357;SDS011;14831;50.474;7.616;2023-07-16T04:55:57;3.7;;;2.1;;
27357;SDS011;14831;50.474;7.616;2023-07-16T05:00:57;3.7;;;2.1;;
27357;SDS011;14831;50.474;7.616;2023-07-16T05:05:57;3.7;;;2.1;;
27357;SDS011;14831;50.474;7.616;2023-07-16T05:10:57;3.7;;;2.1;;
27357;SDS011;14831;50.474;7.616;2023-07-16T05:15:57;4.6;;;2.3;;
27357;SDS011;14831;50.474;7.616;2023-07-16T05:20:57;4.6;;;2.3;;
27357;SDS011;14831;50.474;7.616;2023-07-16T05:25:57;4.6;;;2.3;;
27357;SDS011;14831;50.474;7.616;2023-07-16T05:30:58;4.6;;;2.3;;
27357;SDS011;14831;50.474;7.616;2023-07-16T05:35:57;4.6;;;2.3;;
27357;SDS011;14831;50.474;7.616;2023-07-16T05:41:00;4.6;;;2.3;;
27357;SDS011;14831;50.474;7.616;2023-07-16T05:45:57;5.5;;;2.3;;
27357;SDS011;14831;50.474;7.616;2023-07-16T05:50:57;5.5;;;2.3;;
27357;SDS011;14831;50.474;7.616;2023-07-16T05:55:57;5.5;;;2.3;;
27357;SDS011;14831;50.474;7.616;2023-07-16T06:00:57;5.5;;;2.3;;
27357;SDS011;14831;50.474;7.616;2023-07-16T06:05:57;5.5;;;2.3;;
27357;SDS011;14831;50.474;7.616;2023-07-16T06:10:57;5.5;;;2.3;;
27357;SDS011;14831;50.474;7.616;2023-07-16T06:15:57;5.7;;;2.7;;
27357;SDS011;14831;50.474;7.616;2023-07-16T06:20:57;5.7;;;2.7;;
27357;SDS011;14831;50.474;7.616;2023-07-16T06:25:57;5.7;;;2.7;;
27357;SDS011;14831;50.474;7.616;2023-07-16T06:30:57;5.7;;;2.7;;
27357;SDS011;14831;50.474;7.616;2023-07-16T06:35:57;5.7;;;2.7;;
27357;SDS011;14831;50.474;7.616;2023-07-16T06:40:57;5.7;;;2.7;;
27357;SDS011;14831;50.474;7.616;2023-07-16T06:45:57;7.1;;;3.6;;
27357;SDS011;14831;50.474;7.616;2023-07-16T06:50:58;7.1;;;3.6;;
27357;SDS011;14831;50.474;7.616;2023-07-16T06:55:57;7.1;;;3.6;;
27357;SDS011;14831;50.474;7.616;2023-07-16T07:00:57;7.1;;;3.6;;
27357;SDS011;14831;50.474;7.616;2023-07-16T07:05:57;7.1;;;3.6;;
27357;SDS011;14831;50.474;7.616;2023-07-16T07:10:57;7.1;;;3.6;;
27357;SDS011;14831;50.474;7.616;2023-07-16T07:15:57;6.7;;;4.1;;
27357;SDS011;14831;50.474;7.616;2023-07-16T07:20:57;6.7;;;4.1;;
27357;SDS011;14831;50.474;7.616;2023-07-16T07:25:57;6.7;;;4.1;;
27357;SDS011;14831;50.474;7.616;2023-07-16T07:30:57;6.7;;;4.1;;
27357;SDS011;14831;50.474;7.616;2023-07-16T07:35:57;6.7;;;4.1;;
27357;SDS011;14831;50.474;7.616;2023-07-16T07:40:57;6.7;;;4.1;;
27357;SDS011;14831;50.474;7.616;2023-07-16T07:45:57;7.9;;;4.2;;
27357;SDS011;14831;50.474;7.616;2023-07-16T07:50:57;7.9;;;4.2;;
27357;SDS011;14831;50.474;7.616;2023-07-16T07:55:57;7.9;;;4.2;;
27357;SDS011;14831;50.474;7.616;2023-07-16T08:01:03;7.9;;;4.2;;
27357;SDS011;14831;50.474;7.616;2023-07-16T08:05:57;7.9;;;4.2;;
27357;SDS011;14831;50.474;7.616;2023-07-16T08:10:57;7.9;;;4.2;;
27357;SDS011;14831;50.474;7.616;2023-07-16T08:15:57;5.4;;;3.9;;
27357;SDS011;14831;50.474;7.616;2023-07-16T08:20:57;5.4;;;3.9;;
27357;SDS011;14831;50.474;7.616;2023-07-16T08:25:57;5.4;;;3.9;;
27357;SDS011;14831;50.474;7.616;2023-07-16T08:30:57;5.4;;;3.9;;
27357;SDS011;14831;50.474;7.616;2023-07-16T08:35:57;5.4;;;3.9;;
27357;SDS011;14831;50.474;7.616;2023-07-16T08:40:57;5.4;;;3.9;;
27357;SDS011;14831;50.474;7.616;2023-07-16T08:45:57;7.5;;;4.9;;
27357;SDS011;14831;50.474;7.616;2023-07-16T08:50:58;7.5;;;4.9;;
27357;SDS011;14831;50.474;7.616;2023-07-16T08:55:57;7.5;;;4.9;;
27357;SDS011;14831;50.474;7.616;2023-07-16T09:00:58;7.5;;;4.9;;
27357;SDS011;14831;50.474;7.616;2023-07-16T09:05:57;7.5;;;4.9;;
27357;SDS011;14831;50.474;7.616;2023-07-16T09:10:58;7.5;;;4.9;;
27357;SDS011;14831;50.474;7.616;2023-07-16T09:15:58;7.0;;;5.4;;
27357;SDS011;14831;50.474;7.616;2023-07-16T09:20:58;7.0;;;5.4;;
27357;SDS011;14831;50.474;7.616;2023-07-16T09:25:57;7.0;;;5.4;;
27357;SDS011;14831;50.474;7.616;2023-07-16T09:31:03;7.0;;;5.4;;
27357;SDS011;14831;50.474;7.616;2023-07-16T09:35:57;7.0;;;5.4;;
27357;SDS011;14831;50.474;7.616;2023-07-16T09:40:58;7.0;;;5.4;;
27357;SDS011;14831;50.474;7.616;2023-07-16T09:45:57;12.1;;;6.4;;
27357;SDS011;14831;50.474;7.616;2023-07-16T09:50:57;12.1;;;6.4;;
27357;SDS011;14831;50.474;7.616;2023-07-16T09:55:58;12.1;;;6.4;;
27357;SDS011;14831;50.474;7.616;2023-07-16T10:00:59;12.1;;;6.4;;
27357;SDS011;14831;50.474;7.616;2023-07-16T10:06:05;12.1;;;6.4;;
27357;SDS011;14831;50.474;7.616;2023-07-16T10:10:57;12.1;;;6.4;;
27357;SDS011;14831;50.474;7.616;2023-07-16T10:15:58;8.3;;;6.3;;
27357;SDS011;14831;50.474;7.616;2023-07-16T10:21:02;8.3;;;6.3;;
27357;SDS011;14831;50.474;7.616;2023-07-16T10:25:58;8.3;;;6.3;;
27357;SDS011;14831;50.474;7.616;2023-07-16T10:30:57;8.3;;;6.3;;
27357;SDS011;14831;50.474;7.616;2023-07-16T10:35:57;8.3;;;6.3;;
27357;SDS011;14831;50.474;7.616;2023-07-16T10:40:57;8.3;;;6.3;;
27357;SDS011;14831;50.474;7.616;2023-07-16T10:45:57;7.7;;;5.9;;
27357;SDS011;14831;50.474;7.616;2023-07-16T10:50:57;7.7;;;5.9;;
27357;SDS011;14831;50.474;7.616;2023-07-16T10:55:58;7.7;;;5.9;;
27357;SDS011;14831;50.474;7.616;2023-07-16T11:00:58;7.7;;;5.9;;
27357;SDS011;14831;50.474;7.616;2023-07-16T11:05:57;7.7;;;5.9;;
27357;SDS011;14831;50.474;7.616;2023-07-16T11:10:57;7.7;;;5.9;;
27357;SDS011;14831;50.474;7.616;2023-07-16T11:16:06;8.3;;;5.4;;
27357;SDS011;14831;50.474;7.616;2023-07-16T11:20:59;8.3;;;5.4;;
27357;SDS011;14831;50.474;7.616;2023-07-16T11:25:57;8.3;;;5.4;;
27357;SDS011;14831;50.474;7.616;2023-07-16T11:30:57;8.3;;;5.4;;
27357;SDS011;14831;50.474;7.616;2023-07-16T11:35:57;8.3;;;5.4;;
27357;SDS011;14831;50.474;7.616;2023-07-16T11:41:00;8.3;;;5.4;;
27357;SDS011;14831;50.474;7.616;2023-07-16T11:45:57;8.9;;;5.9;;
27357;SDS011;14831;50.474;7.616;2023-07-16T11:50:57;8.9;;;5.9;;
27357;SDS011;14831;50.474;7.616;2023-07-16T11:55:57;8.9;;;5.9;;
27357;SDS011;14831;50.474;7.616;2023-07-16T12:00:57;8.9;;;5.9;;
27357;SDS011;14831;50.474;7.616;2023-07-16T12:05:57;8.9;;;5.9;;
27357;SDS011;14831;50.474;7.616;2023-07-16T12:10:57;8.9;;;5.9;;
27357;SDS011;14831;50.474;7.616;2023-07-16T12:15:57;7.0;;;5.2;;
27357;SDS011;14831;50.474;7.616;2023-07-16T12:20:57;7.0;;;5.2;;
27357;SDS011;14831;50.474;7.616;2023-07-16T12:25:57;7.0;;;5.2;;
27357;SDS011;14831;50.474;7.616;2023-07-16T12:30:57;7.0;;;5.2;;
27357;SDS011;14831;50.474;7.616;2023-07-16T12:35:57;7.0;;;5.2;;
27357;SDS011;14831;50.474;7.616;2023-07-16T12:40:57;7.0;;;5.2;;
27357;SDS011;14831;50.474;7.616;2023-07-16T12:45:57;6.8;;;5.4;;
27357;SDS011;14831;50.474;7.616;2023-07-16T12:50:57;6.8;;;5.4;;
27357;SDS011;14831;50.474;7.616;2023-07-16T12:55:57;6.8;;;5.4;;
27357;SDS011;14831;50.474;7.616;2023-07-16T13:00:57;6.8;;;5.4;;
27357;SDS011;14831;50.474;7.616;2023-07-16T13:05:57;6.8;;;5.4;;
27357;SDS011;14831;50.474;7.616;2023-07-16T13:10:57;6.8;;;5.4;;
27357;SDS011;14831;50.474;7.616;2023-07-16T13:15:57;7.8;;;5.5;;
27357;SDS011;14831;50.474;7.616;2023-07-16T13:20:57;7.8;;;5.5;;
27357;SDS011;14831;50.474;7.616;2023-07-16T13:25:57;7.8;;;5.5;;
27357;SDS011;14831;50.474;7.616;2023-07-16T13:30:57;7.8;;;5.5;;
27357;SDS011;14831;50.474;7.616;2023-07-16T13:35:57;7.8;;;5.5;;
27357;SDS011;14831;50.474;7.616;2023-07-16T13:40:57;7.8;;;5.5;;
27357;SDS011;14831;50.474;7.616;2023-07-16T13:45:57;7.5;;;5.2;;
27357;SDS011;14831;50.474;7.616;2023-07-16T13:50:57;7.5;;;5.2;;
27357;SDS011;14831;50.474;7.616;2023-07-16T13:55:57;7.5;;;5.2;;
27357;SDS011;14831;50.474;7.616;2023-07-16T14:00:57;7.5;;;5.2;;
27357;SDS011;14831;50.474;7.616;2023-07-16T14:05:57;7.5;;;5.2;;
27357;SDS011;14831;50.474;7.616;2023-07-16T14:10:57;7.5;;;5.2;;
27357;SDS011;14831;50.474;7.616;2023-07-16T14:15:57;10.1;;;5.8;;
27357;SDS011;14831;50.474;7.616;2023-07-16T14:20:57;10.1;;;5.8;;
27357;SDS011;14831;50.474;7.616;2023-07-16T14:25:57;10.1;;;5.8;;
27357;SDS011;14831;50.474;7.616;2023-07-16T14:30:57;10.1;;;5.8;;
27357;SDS011;14831;50.474;7.616;2023-07-16T14:35:57;10.1;;;5.8;;
27357;SDS011;14831;50.474;7.616;2023-07-16T14:40:57;10.1;;;5.8;;
27357;SDS011;14831;50.474;7.616;2023-07-16T14:45:57;7.3;;;5.1;;
27357;SDS011;14831;50.474;7.616;2023-07-16T14:50:57;7.3;;;5.1;;
27357;SDS011;14831;50.474;7.616;2023-07-16T14:55:57;7.3;;;5.1;;
27357;SDS011;14831;50.474;7.616;2023-07-16T15:00:59;7.3;;;5.1;;
27357;SDS011;14831;50.474;7.616;2023-07-16T15:05:57;7.3;;;5.1;;
27357;SDS011;14831;50.474;7.616;2023-07-16T15:10:58;7.3;;;5.1;;
27357;SDS011;14831;50.474;7.616;2023-07-16T15:15:57;5.8;;;4.4;;
27357;SDS011;14831;50.474;7.616;2023-07-16T15:20:57;5.8;;;4.4;;
27357;SDS011;14831;50.474;7.616;2023-07-16T15:26:02;5.8;;;4.4;;
27357;SDS011;14831;50.474;7.616;2023-07-16T15:30:57;5.8;;;4.4;;
27357;SDS011;14831;50.474;7.616;2023-07-16T15:35:58;5.8;;;4.4;;
27357;SDS011;14831;50.474;7.616;2023-07-16T15:40:57;5.8;;;4.4;;
27357;SDS011;14831;50.474;7.616;2023-07-16T15:45:57;5.7;;;4.5;;
27357;SDS011;14831;50.474;7.616;2023-07-16T15:50:57;5.7;;;4.5;;
27357;SDS011;14831;50.474;7.616;2023-07-16T15:55:57;5.7;;;4.5;;
27357;SDS011;14831;50.474;7.616;2023-07-16T16:00:57;5.7;;;4.5;;
27357;SDS011;14831;50.474;7.616;2023-07-16T16:05:57;5.7;;;4.5;;
27357;SDS011;14831;50.474;7.616;2023-07-16T16:10:57;5.7;;;4.5;;
27357;SDS011;14831;50.474;7.616;2023-07-16T16:15:57;6.7;;;4.6;;
27357;SDS011;14831;50.474;7.616;2023-07-16T16:20:57;6.7;;;4.6;;
27357;SDS011;14831;50.474;7.616;2023-07-16T16:25:57;6.7;;;4.6;;
27357;SDS011;14831;50.474;7.616;2023-07-16T16:30:57;6.7;;;4.6;;
27357;SDS011;14831;50.474;7.616;2023-07-16T16:35:57;6.7;;;4.6;;
27357;SDS011;14831;50.474;7.616;2023-07-16T16:41:02;6.7;;;4.6;;
27357;SDS011;14831;50.474;7.616;2023-07-16T16:45:57;7.5;;;5.0;;
27357;SDS011;14831;50.474;7.616;2023-07-16T16:50:57;7.5;;;5.0;;
27357;SDS011;14831;50.474;7.616;2023-07-16T16:55:57;7.5;;;5.0;;
27357;SDS011;14831;50.474;7.616;2023-07-16T17:00:57;7.5;;;5.0;;
27357;SDS011;14831;50.474;7.616;2023-07-16T17:05:57;7.5;;;5.0;;
27357;SDS011;14831;50.474;7.616;2023-07-16T17:10:58;7.5;;;5.0;;
27357;SDS011;14831;50.474;7.616;2023-07-16T17:15:57;7.6;;;5.2;;
27357;SDS011;14831;50.474;7.616;2023-07-16T17:20:58;7.6;;;5.2;;
27357;SDS011;14831;50.474;7.616;2023-07-16T17:25:57;7.6;;;5.2;;
27357;SDS011;14831;50.474;7.616;2023-07-16T17:30:57;7.6;;;5.2;;
27357;SDS011;14831;50.474;7.616;2023-07-16T17:35:57;7.6;;;5.2;;
27357;SDS011;14831;50.474;7.616;2023-07-16T17:40:57;7.6;;;5.2;;
27357;SDS011;14831;50.474;7.616;2023-07-16T17:45:57;7.7;;;5.4;;
27357;SDS011;14831;50.474;7.616;2023-07-16T17:50:57;7.7;;;5.4;;
27357;SDS011;14831;50.474;7.616;2023-07-16T17:55:57;7.7;;;5.4;;
27357;SDS011;14831;50.474;7.616;2023-07-16T18:00:57;7.7;;;5.4;;
27357;SDS011;14831;50.474;7.616;2023-07-16T18:05:57;7.7;;;5.4;;
27357;SDS011;14831;50.474;7.616;2023-07-16T18:10:57;7.7;;;5.4;;
27357;SDS011;14831;50.474;7.616;2023-07-16T18:15:57;7.6;;;5.4;;
27357;SDS011;14831;50.474;7.616;2023-07-16T18:20:57;7.6;;;5.4;;
27357;SDS011;14831;50.474;7.616;2023-07-16T18:25:57;7.6;;;5.4;;
27357;SDS011;14831;50.474;7.616;2023-07-16T18:30:58;7.6;;;5.4;;
27357;SDS011;14831;50.474;7.616;2023-07-16T18:35:57;7.6;;;5.4;;
27357;SDS011;14831;50.474;7.616;2023-07-16T18:40:57;7.6;;;5.4;;
27357;SDS011;14831;50.474;7.616;2023-07-16T18:45:58;10.2;;;5.6;;
27357;SDS011;14831;50.474;7.616;2023-07-16T18:50:58;10.2;;;5.6;;
27357;SDS011;14831;50.474;7.616;2023-07-16T18:55:58;10.2;;;5.6;;
27357;SDS011;14831;50.474;7.616;2023-07-16T19:00:57;10.2;;;5.6;;
27357;SDS011;14831;50.474;7.616;2023-07-16T19:06:00;10.2;;;5.6;;
27357;SDS011;14831;50.474;7.616;2023-07-16T19:10:57;10.2;;;5.6;;
27357;SDS011;14831;50.474;7.616;2023-07-16T19:15:57;6.7;;;5.3;;
27357;SDS011;14831;50.474;7.616;2023-07-16T19:20:57;6.7;;;5.3;;
27357;SDS011;14831;50.474;7.616;2023-07-16T19:25:57;6.7;;;5.3;;
27357;SDS011;14831;50.474;7.616;2023-07-16T19:30:57;6.7;;;5.3;;
27357;SDS011;14831;50.474;7.616;2023-07-16T19:35:58;6.7;;;5.3;;
27357;SDS011;14831;50.474;7.616;2023-07-16T19:40:57;6.7;;;5.3;;
27357;SDS011;14831;50.474;7.616;2023-07-16T19:45:59;5.9;;;4.9;;
27357;SDS011;14831;50.474;7.616;2023-07-16T19:50:58;5.9;;;4.9;;
27357;SDS011;14831;50.474;7.616;2023-07-16T19:55:58;5.9;;;4.9;;
27357;SDS011;14831;50.474;7.616;2023-07-16T20:00:57;5.9;;;4.9;;
27357;SDS011;14831;50.474;7.616;2023-07-16T20:05:57;5.9;;;4.9;;
27357;SDS011;14831;50.474;7.616;2023-07-16T20:10:58;5.9;;;4.9;;
27357;SDS011;14831;50.474;7.616;2023-07-16T20:15:57;8.5;;;5.4;;
27357;SDS011;14831;50.474;7.616;2023-07-16T20:20:57;8.5;;;5.4;;
27357;SDS011;14831;50.474;7.616;2023-07-16T20:25:57;8.5;;;5.4;;
27357;SDS011;14831;50.474;7.616;2023-07-16T20:30:57;8.5;;;5.4;;
27357;SDS011;14831;50.474;7.616;2023-07-16T20:35:57;8.5;;;5.4;;
27357;SDS011;14831;50.474;7.616;2023-07-16T20:40:57;8.5;;;5.4;;
27357;SDS011;14831;50.474;7.616;2023-07-16T20:45:57;8.3;;;5.1;;
27357;SDS011;14831;50.474;7.616;2023-07-16T20:50:57;8.3;;;5.1;;
27357;SDS011;14831;50.474;7.616;2023-07-16T20:55:57;8.3;;;5.1;;
27357;SDS011;14831;50.474;7.616;2023-07-16T21:00:58;8.3;;;5.1;;
27357;SDS011;14831;50.474;7.616;2023-07-16T21:05:57;8.3;;;5.1;;
27357;SDS011;14831;50.474;7.616;2023-07-16T21:10:57;8.3;;;5.1;;
27357;SDS011;14831;50.474;7.616;2023-07-16T21:15:57;7.9;;;4.9;;
27357;SDS011;14831;50.474;7.616;2023-07-16T21:20:58;7.9;;;4.9;;
27357;SDS011;14831;50.474;7.616;2023-07-16T21:25:57;7.9;;;4.9;;
27357;SDS011;14831;50.474;7.616;2023-07-16T21:30:57;7.9;;;4.9;;
27357;SDS011;14831;50.474;7.616;2023-07-16T21:35:57;7.9;;;4.9;;
27357;SDS011;14831;50.474;7.616;2023-07-16T21:40:57;7.9;;;4.9;;
27357;SDS011;14831;50.474;7.616;2023-07-16T21:45:57;7.8;;;5.3;;
27357;SDS011;14831;50.474;7.616;2023-07-16T21:50:57;7.8;;;5.3;;
27357;SDS011;14831;50.474;7.616;2023-07-16T21:55:57;7.8;;;5.3;;
27357;SDS011;14831;50.474;7.616;2023-07-16T22:00:57;7.8;;;5.3;;
27357;SDS011;14831;50.474;7.616;2023-07-16T22:05:57;7.8;;;5.3;;
27357;SDS011;14831;50.474;7.616;2023-07-16T22:10:57;7.8;;;5.3;;
27357;SDS011;14831;50.474;7.616;2023-07-16T22:15:57;7.5;;;5.4;;
27357;SDS011;14831;50.474;7.616;2023-07-16T22:20:58;7.5;;;5.4;;
27357;SDS011;14831;50.474;7.616;2023-07-16T22:25:57;7.5;;;5.4;;
27357;SDS011;14831;50.474;7.616;2023-07-16T22:30:57;7.5;;;5.4;;
27357;SDS011;14831;50.474;7.616;2023-07-16T22:35:57;7.5;;;5.4;;
27357;SDS011;14831;50.474;7.616;2023-07-16T22:40:57;7.5;;;5.4;;
27357;SDS011;14831;50.474;7.616;2023-07-16T22:45:58;6.8;;;5.4;;
27357;SDS011;14831;50.474;7.616;2023-07-16T22:50:57;6.8;;;5.4;;
27357;SDS011;14831;50.474;7.616;2023-07-16T22:55:57;6.8;;;5.4;;
27357;SDS011;14831;50.474;7.616;2023-07-16T23:00:57;6.8;;;5.4;;
27357;SDS011;14831;50.474;7.616;2023-07-16T23:05:57;6.8;;;5.4;;
27357;SDS011;14831;50.474;7.616;2023-07-16T23:10:57;6.8;;;5.4;;
27357;SDS011;14831;50.474;7.616;2023-07-16T23:15:57;7.9;;;5.5;;
27357;SDS011;14831;50.474;7.616;2023-07-16T23:20:57;7.9;;;5.5;;
27357;SDS011;14831;50.474;7.616;2023-07-16T23:25:57;7.9;;;5.5;;
27357;SDS011;14831;50.474;7.616;2023-07-16T23:30:57;7.9;;;5.5;;
27357;SDS011;14831;50.474;7.616;2023-07-16T23:35:57;7.9;;;5.5;;
27357;SDS011;14831;50.474;7.616;2023-07-16T23:40:57;7.9;;;5.5;;
27357;SDS011;14831;50.474;7.616;2023-07-16T23:45:57;8.2;;;5.8;;
27357;SDS011;14831;50.474;7.616;2023-07-16T23:50:57;8.2;;;5.8;;
27357;SDS011;14831;50.474;7.616;2023-07-16T23:55:57;8.2;;;5.8;;
